createdAt,value
2022-12-03T00:01:38.034Z,91.76
2022-12-03T00:04:40.389Z,92.27
2022-12-03T00:07:43.063Z,91.87
2022-12-03T00:10:45.367Z,91.39
2022-12-03T00:13:48.762Z,91.17
2022-12-03T00:16:51.118Z,90.99
2022-12-03T00:19:53.900Z,90.77
2022-12-03T00:22:56.252Z,90.70
2022-12-03T00:25:58.942Z,90.48
2022-12-03T00:29:01.303Z,90.91
2022-12-03T00:32:03.958Z,91.14
2022-12-03T00:35:06.835Z,90.51
2022-12-03T00:38:09.525Z,90.77
2022-12-03T00:41:12.314Z,90.79
2022-12-03T00:44:15.149Z,89.85
2022-12-03T00:47:17.496Z,90.27
2022-12-03T00:50:20.118Z,90.47
2022-12-03T00:53:22.416Z,90.23
2022-12-03T00:56:25.321Z,90.57
2022-12-03T00:59:27.878Z,89.94
2022-12-03T01:02:30.518Z,89.69
2022-12-03T01:05:32.931Z,90.12
2022-12-03T01:08:35.733Z,90.54
2022-12-03T01:11:38.044Z,90.52
2022-12-03T01:14:40.953Z,90.12
2022-12-03T01:17:43.324Z,90.21
2022-12-03T01:20:45.979Z,89.75
2022-12-03T01:23:48.755Z,89.60
2022-12-03T01:26:51.461Z,90.67
2022-12-03T01:29:53.866Z,90.52
2022-12-03T01:32:56.532Z,90.26
2022-12-03T01:35:58.855Z,90.29
2022-12-03T01:39:02.475Z,90.33
2022-12-03T01:42:07.449Z,90.00
2022-12-03T01:45:21.314Z,89.47
2022-12-03T01:48:23.698Z,90.66
2022-12-03T01:51:26.389Z,89.99
2022-12-03T01:54:37.322Z,90.02
2022-12-03T01:57:46.704Z,90.00
2022-12-03T02:00:49.166Z,90.06
2022-12-03T02:03:51.994Z,89.54
2022-12-03T02:06:54.499Z,89.91
2022-12-03T02:09:59.453Z,89.64
2022-12-03T02:13:07.601Z,89.72
2022-12-03T02:16:10.723Z,89.63
2022-12-03T02:19:25.941Z,89.91
2022-12-03T02:22:47.196Z,89.46
2022-12-03T02:25:49.527Z,88.97
2022-12-03T02:28:52.224Z,89.19
2022-12-03T02:31:54.658Z,89.46
2022-12-03T02:34:57.357Z,89.21
2022-12-03T02:38:04.710Z,88.65
2022-12-03T02:41:09.849Z,88.88
2022-12-03T02:44:13.124Z,88.76
2022-12-03T02:47:16.110Z,88.88
2022-12-03T02:50:23.314Z,88.96
2022-12-03T02:53:36.280Z,88.99
2022-12-03T02:56:38.675Z,89.08
2022-12-03T02:59:41.358Z,88.89
2022-12-03T03:02:45.410Z,88.01
2022-12-03T03:05:48.788Z,88.92
2022-12-03T03:08:51.566Z,88.35
2022-12-03T03:11:54.233Z,88.15
2022-12-03T03:14:56.621Z,87.50
2022-12-03T03:17:59.272Z,87.52
2022-12-03T03:21:01.804Z,87.55
2022-12-03T03:24:05.571Z,87.80
2022-12-03T03:27:08.052Z,87.55
2022-12-03T03:30:12.398Z,87.41
2022-12-03T03:33:16.165Z,87.43
2022-12-03T03:36:19.863Z,87.29
2022-12-03T03:39:22.291Z,87.73
2022-12-03T03:42:25.309Z,86.47
2022-12-03T03:45:29.600Z,87.07
2022-12-03T03:48:34.764Z,86.35
2022-12-03T03:51:37.858Z,86.46
2022-12-03T03:54:40.471Z,86.76
2022-12-03T03:57:42.804Z,87.55
2022-12-03T04:00:45.837Z,86.72
2022-12-03T04:03:48.309Z,87.57
2022-12-03T04:06:51.141Z,87.63
2022-12-03T04:09:53.439Z,86.85
2022-12-03T04:12:56.039Z,87.43
2022-12-03T04:15:58.377Z,87.19
2022-12-03T04:19:01.094Z,87.04
2022-12-03T04:22:21.995Z,87.17
2022-12-03T04:25:43.173Z,87.14
2022-12-03T04:28:51.540Z,87.12
2022-12-03T04:32:12.783Z,86.66
2022-12-03T04:35:33.515Z,87.08
2022-12-03T04:38:36.231Z,87.20
2022-12-03T04:41:38.539Z,87.59
2022-12-03T04:44:41.342Z,86.85
2022-12-03T04:47:44.809Z,87.15
2022-12-03T04:50:47.556Z,87.00
2022-12-03T04:53:49.902Z,87.01
2022-12-03T04:56:52.567Z,86.95
2022-12-03T04:59:54.908Z,86.64
2022-12-03T05:02:57.733Z,86.58
2022-12-03T05:06:00.285Z,87.14
2022-12-03T05:09:03.667Z,87.08
2022-12-03T05:12:06.214Z,86.91
2022-12-03T05:15:09.309Z,87.47
2022-12-03T05:18:11.643Z,86.51
2022-12-03T05:21:14.335Z,86.39
2022-12-03T05:24:16.631Z,86.52
2022-12-03T05:27:23.713Z,86.13
2022-12-03T05:30:26.676Z,86.73
2022-12-03T05:33:29.509Z,86.82
2022-12-03T05:36:31.969Z,87.35
2022-12-03T05:39:34.636Z,87.21
2022-12-03T05:42:55.007Z,87.66
2022-12-03T05:45:57.732Z,87.68
2022-12-03T05:49:00.377Z,88.25
2022-12-03T05:52:03.298Z,87.62
2022-12-03T05:55:06.655Z,87.14
2022-12-03T05:58:09.541Z,88.10
2022-12-03T06:01:12.735Z,88.12
2022-12-03T06:04:15.502Z,87.65
2022-12-03T06:07:17.792Z,87.06
2022-12-03T06:10:23.436Z,87.87
2022-12-03T06:13:25.783Z,87.94
2022-12-03T06:16:28.520Z,87.53
2022-12-03T06:19:31.769Z,87.31
2022-12-03T06:22:34.498Z,87.62
2022-12-03T06:25:36.885Z,87.43
2022-12-03T06:28:39.627Z,88.42
2022-12-03T06:31:42.036Z,87.86
2022-12-03T06:34:44.704Z,88.37
2022-12-03T06:37:47.027Z,88.70
2022-12-03T06:40:49.625Z,88.56
2022-12-03T06:43:51.889Z,88.46
2022-12-03T06:46:54.667Z,88.35
2022-12-03T06:49:57.093Z,88.13
2022-12-03T06:52:59.865Z,88.70
2022-12-03T06:56:02.275Z,88.63
2022-12-03T06:59:04.980Z,88.73
2022-12-03T07:02:07.371Z,88.41
2022-12-03T07:05:10.189Z,88.19
2022-12-03T07:08:12.613Z,87.52
2022-12-03T07:11:33.656Z,87.42
2022-12-03T07:14:36.060Z,87.56
2022-12-03T07:17:38.759Z,87.93
2022-12-03T07:20:41.245Z,87.23
2022-12-03T07:23:44.077Z,87.21
2022-12-03T07:26:46.463Z,86.70
2022-12-03T07:29:49.188Z,86.79
2022-12-03T07:32:51.750Z,86.15
2022-12-03T07:35:54.530Z,86.46
2022-12-03T07:38:56.904Z,86.79
2022-12-03T07:41:59.982Z,86.55
2022-12-03T07:45:02.366Z,86.73
2022-12-03T07:48:05.222Z,86.90
2022-12-03T07:51:08.828Z,86.73
2022-12-03T07:54:13.121Z,86.71
2022-12-03T07:57:15.601Z,87.29
2022-12-03T08:00:20.098Z,87.74
2022-12-03T08:03:22.379Z,88.78
2022-12-03T08:06:25.095Z,88.32
2022-12-03T08:09:27.456Z,88.82
2022-12-03T08:12:40.455Z,88.62
2022-12-03T08:15:49.644Z,89.10
2022-12-03T08:18:55.124Z,89.65
2022-12-03T08:22:01.198Z,89.74
2022-12-03T08:25:10.268Z,89.48
2022-12-03T08:28:17.106Z,89.61
2022-12-03T08:31:27.971Z,89.85
2022-12-03T08:34:41.311Z,90.09
2022-12-03T08:37:44.067Z,90.22
2022-12-03T08:40:47.527Z,90.66
2022-12-03T08:43:50.248Z,90.60
2022-12-03T08:47:04.598Z,90.30
2022-12-03T08:50:27.589Z,91.12
2022-12-03T08:53:46.765Z,90.93
2022-12-03T08:56:49.593Z,91.43
2022-12-03T08:59:58.632Z,91.49
2022-12-03T09:03:01.619Z,91.51
2022-12-03T09:06:04.190Z,91.29
2022-12-03T09:09:07.081Z,90.97
2022-12-03T09:12:09.645Z,91.15
2022-12-03T09:15:12.404Z,91.85
2022-12-03T09:18:14.888Z,92.23
2022-12-03T09:21:17.693Z,92.51
2022-12-03T09:24:26.349Z,92.82
2022-12-03T09:27:29.108Z,92.68
2022-12-03T09:30:34.618Z,92.93
2022-12-03T09:33:37.434Z,91.85
2022-12-03T09:36:39.879Z,92.19
2022-12-03T09:39:43.048Z,92.16
2022-12-03T09:42:45.667Z,91.97
2022-12-03T09:45:49.902Z,92.79
2022-12-03T09:48:52.714Z,93.19
2022-12-03T09:52:01.419Z,93.00
2022-12-03T09:55:14.357Z,93.52
2022-12-03T09:58:24.498Z,93.77
2022-12-03T10:01:30.639Z,94.49
2022-12-03T10:04:33.655Z,94.28
2022-12-03T10:07:36.117Z,94.02
2022-12-03T10:10:42.493Z,94.57
2022-12-03T10:13:44.954Z,93.55
2022-12-03T10:16:47.761Z,94.71
2022-12-03T10:19:50.174Z,94.47
2022-12-03T10:22:52.805Z,94.41
2022-12-03T10:25:59.520Z,94.88
2022-12-03T10:29:02.270Z,95.42
2022-12-03T10:32:07.868Z,94.65
2022-12-03T10:35:20.230Z,93.89
2022-12-03T10:38:24.693Z,93.25
2022-12-03T10:41:28.864Z,93.23
2022-12-03T10:44:31.157Z,93.79
2022-12-03T10:47:34.086Z,94.72
2022-12-03T10:50:37.595Z,94.02
2022-12-03T10:53:43.881Z,93.61
2022-12-03T10:56:47.456Z,93.07
2022-12-03T10:59:50.252Z,93.85
2022-12-03T11:02:56.687Z,94.30
2022-12-03T11:06:03.780Z,93.65
2022-12-03T11:09:16.969Z,93.15
2022-12-03T11:12:28.374Z,94.00
2022-12-03T11:15:45.165Z,93.85
2022-12-03T11:18:50.900Z,93.93
2022-12-03T11:22:05.613Z,94.14
2022-12-03T11:25:26.943Z,94.11
2022-12-03T11:28:34.278Z,93.92
2022-12-03T11:31:48.124Z,92.98
2022-12-03T11:34:50.904Z,93.55
2022-12-03T11:37:53.688Z,93.22
2022-12-03T11:41:12.867Z,93.63
2022-12-03T11:44:37.070Z,93.91
2022-12-03T11:47:45.387Z,93.81
2022-12-03T11:50:52.487Z,93.18
2022-12-03T11:53:57.713Z,92.78
2022-12-03T11:57:00.600Z,93.39
2022-12-03T12:00:08.503Z,93.58
2022-12-03T12:03:26.650Z,93.63
2022-12-03T12:06:29.424Z,92.50
2022-12-03T12:09:53.748Z,93.14
2022-12-03T12:12:57.539Z,93.08
2022-12-03T12:16:02.190Z,94.64
2022-12-03T12:19:40.101Z,94.53
2022-12-03T12:22:43.024Z,93.40
2022-12-03T12:25:52.478Z,92.70
2022-12-03T12:28:56.900Z,92.46
2022-12-03T12:32:12.699Z,93.56
2022-12-03T12:35:17.289Z,93.09
2022-12-03T12:38:21.143Z,93.64
2022-12-03T12:41:24.520Z,93.36
2022-12-03T12:44:27.735Z,93.59
2022-12-03T12:47:30.843Z,94.31
2022-12-03T12:50:33.484Z,94.08
2022-12-03T12:53:37.769Z,94.13
2022-12-03T12:56:42.671Z,94.79
2022-12-03T12:59:45.550Z,94.00
2022-12-03T13:02:54.245Z,94.60
2022-12-03T13:05:57.881Z,94.69
2022-12-03T13:09:02.976Z,94.46
2022-12-03T13:12:09.411Z,93.78
2022-12-03T13:15:32.835Z,94.46
2022-12-03T13:18:42.958Z,94.32
2022-12-03T13:21:45.940Z,94.12
2022-12-03T13:24:53.512Z,94.00
2022-12-03T13:27:56.143Z,94.00
2022-12-03T13:31:25.368Z,93.48
2022-12-03T13:34:32.743Z,93.17
2022-12-03T13:37:35.982Z,93.59
2022-12-03T13:40:38.679Z,93.03
2022-12-03T13:43:44.460Z,93.21
2022-12-03T13:46:47.364Z,93.39
2022-12-03T13:49:54.081Z,92.50
2022-12-03T13:52:57.068Z,92.69
2022-12-03T13:56:21.552Z,92.67
2022-12-03T13:59:26.307Z,92.80
2022-12-03T14:02:29.351Z,92.97
2022-12-03T14:05:31.828Z,92.65
2022-12-03T14:08:34.510Z,92.43
2022-12-03T14:11:57.725Z,92.12
2022-12-03T14:15:02.160Z,92.33
2022-12-03T14:18:04.914Z,92.45
2022-12-03T14:21:07.674Z,92.91
2022-12-03T14:24:10.117Z,92.73
2022-12-03T14:27:12.845Z,92.66
2022-12-03T14:30:15.330Z,92.79
2022-12-03T14:33:18.046Z,92.93
2022-12-03T14:36:20.381Z,93.24
2022-12-03T14:39:23.237Z,92.91
2022-12-03T14:42:25.667Z,92.35
2022-12-03T14:45:30.099Z,93.42
2022-12-03T14:48:32.484Z,93.73
2022-12-03T14:51:35.203Z,94.21
2022-12-03T14:54:39.412Z,94.30
2022-12-03T14:57:42.142Z,94.46
2022-12-03T15:00:44.514Z,94.34
2022-12-03T15:03:47.284Z,95.17
2022-12-03T15:06:50.120Z,95.06
2022-12-03T15:09:53.172Z,95.27
2022-12-03T15:12:55.895Z,95.58
2022-12-03T15:15:59.047Z,95.64
2022-12-03T15:19:01.820Z,95.59
2022-12-03T15:22:04.602Z,96.26
2022-12-03T15:25:08.063Z,95.98
2022-12-03T15:28:11.114Z,96.19
2022-12-03T15:31:13.677Z,95.79
2022-12-03T15:34:22.128Z,96.04
2022-12-03T15:37:27.896Z,95.79
2022-12-03T15:40:30.662Z,95.97
2022-12-03T15:43:33.328Z,97.11
2022-12-03T15:46:36.347Z,97.94
2022-12-03T15:49:39.086Z,97.64
2022-12-03T15:52:42.097Z,97.41
2022-12-03T15:55:44.665Z,97.33
2022-12-03T15:58:47.922Z,97.25
2022-12-03T16:01:50.908Z,96.68
2022-12-03T16:04:54.179Z,97.04
2022-12-03T16:07:57.077Z,97.57
2022-12-03T16:11:02.379Z,97.31
2022-12-03T16:14:05.131Z,96.79
2022-12-03T16:17:07.913Z,98.67
2022-12-03T16:20:10.601Z,99.04
2022-12-03T16:23:16.547Z,99.10
2022-12-03T16:26:22.179Z,99.61
2022-12-03T16:29:25.755Z,99.44
2022-12-03T16:32:28.355Z,100.00
2022-12-03T16:35:31.681Z,99.74
2022-12-03T16:38:34.889Z,99.87
2022-12-03T16:41:40.304Z,99.62
2022-12-03T16:45:12.442Z,99.63
2022-12-03T16:48:15.882Z,99.48
2022-12-03T16:51:22.101Z,99.99
2022-12-03T16:54:25.345Z,99.79
2022-12-03T16:57:33.456Z,100.00
2022-12-03T17:00:36.949Z,100.00
2022-12-03T17:03:39.583Z,100.00
2022-12-03T17:06:42.442Z,100.00
2022-12-03T17:09:44.960Z,100.00
2022-12-03T17:13:08.761Z,100.00
2022-12-03T17:16:15.417Z,100.00
2022-12-03T17:19:18.829Z,100.00
2022-12-03T17:22:22.202Z,100.00
2022-12-03T17:25:25.664Z,100.00
2022-12-03T17:28:29.602Z,100.00
2022-12-03T17:31:38.415Z,100.00
2022-12-03T17:34:58.832Z,100.00
2022-12-03T17:38:04.941Z,100.00
2022-12-03T17:41:11.666Z,100.00
2022-12-03T17:44:19.383Z,100.00
2022-12-03T17:47:24.052Z,100.00
2022-12-03T17:50:49.099Z,100.00
2022-12-03T17:53:54.176Z,100.00
2022-12-03T17:57:00.624Z,100.00
2022-12-03T18:00:04.507Z,100.00
2022-12-03T18:03:15.482Z,100.00
2022-12-03T18:06:18.152Z,100.00
2022-12-03T18:09:20.955Z,100.00
2022-12-03T18:12:23.547Z,100.00
2022-12-03T18:15:26.860Z,100.00
2022-12-03T18:18:29.641Z,100.00
2022-12-03T18:21:32.620Z,100.00
2022-12-03T18:24:37.465Z,100.00
2022-12-03T18:27:40.819Z,100.00
2022-12-03T18:30:49.149Z,100.00
2022-12-03T18:33:56.110Z,100.00
2022-12-03T18:36:58.726Z,100.00
2022-12-03T18:40:12.183Z,100.00
2022-12-03T18:43:17.768Z,100.00
2022-12-03T18:49:44.778Z,100.00
2022-12-03T18:52:47.860Z,100.00
2022-12-03T18:55:51.079Z,100.00
2022-12-03T18:58:54.430Z,100.00
2022-12-03T19:01:57.350Z,100.00
2022-12-03T19:05:00.763Z,100.00
2022-12-03T19:08:04.581Z,100.00
2022-12-03T19:11:15.112Z,100.00
2022-12-03T19:14:18.400Z,100.00
2022-12-03T19:17:22.003Z,100.00
2022-12-03T19:20:24.805Z,100.00
2022-12-03T19:23:27.923Z,100.00
2022-12-03T19:26:31.386Z,100.00
2022-12-03T19:29:35.157Z,100.00
2022-12-03T19:32:38.702Z,100.00
2022-12-03T19:35:42.481Z,100.00
2022-12-03T19:38:53.486Z,100.00
2022-12-03T19:41:59.943Z,100.00
2022-12-03T19:45:03.120Z,100.00
2022-12-03T19:48:06.968Z,100.00
2022-12-03T19:51:33.128Z,100.00
2022-12-03T19:54:34.374Z,100.00
2022-12-03T19:57:38.125Z,100.00
2022-12-03T20:00:45.037Z,100.00
2022-12-03T20:03:50.124Z,100.00
2022-12-03T20:06:55.541Z,100.00
2022-12-03T20:09:58.942Z,100.00
2022-12-03T20:13:02.741Z,100.00
2022-12-03T20:16:07.346Z,100.00
2022-12-03T20:19:13.748Z,100.00
2022-12-03T20:22:19.370Z,100.00
2022-12-03T20:25:24.354Z,100.00
2022-12-03T20:28:42.751Z,100.00
2022-12-03T20:31:47.484Z,100.00
2022-12-03T20:34:50.865Z,100.00
2022-12-03T20:37:55.677Z,100.00
2022-12-03T20:41:07.365Z,100.00
2022-12-03T20:44:14.560Z,100.00
2022-12-03T20:47:17.964Z,100.00
2022-12-03T20:50:20.822Z,100.00
2022-12-03T20:53:25.418Z,100.00
2022-12-03T20:56:31.945Z,100.00
2022-12-03T20:59:34.557Z,100.00
2022-12-03T21:02:38.719Z,100.00
2022-12-03T21:05:43.124Z,100.00
2022-12-03T21:08:46.637Z,100.00
2022-12-03T21:11:49.661Z,100.00
2022-12-03T21:14:53.035Z,100.00
2022-12-03T21:17:56.260Z,100.00
2022-12-03T21:21:02.225Z,100.00
2022-12-03T21:24:12.088Z,100.00
2022-12-03T21:27:21.198Z,100.00
2022-12-03T21:30:24.579Z,100.00
2022-12-03T21:33:29.954Z,100.00
2022-12-03T21:36:33.070Z,100.00
2022-12-03T21:39:36.042Z,100.00
2022-12-03T21:42:39.027Z,100.00
2022-12-03T21:45:43.979Z,100.00
2022-12-03T21:48:48.793Z,100.00
2022-12-03T21:51:51.643Z,100.00
2022-12-03T21:54:54.778Z,100.00
2022-12-03T21:57:59.479Z,100.00
2022-12-03T22:01:02.209Z,100.00
2022-12-03T22:04:05.780Z,100.00
2022-12-03T22:07:08.309Z,100.00
2022-12-03T22:10:12.059Z,100.00
2022-12-03T22:13:14.748Z,100.00
2022-12-03T22:16:20.584Z,100.00
2022-12-03T22:19:23.824Z,100.00
2022-12-03T22:22:26.610Z,100.00
2022-12-03T22:25:30.763Z,100.00
2022-12-03T22:28:34.746Z,100.00
2022-12-03T22:31:37.247Z,100.00
2022-12-03T22:34:41.968Z,100.00
2022-12-03T22:37:44.361Z,100.00
2022-12-03T22:40:47.395Z,100.00
2022-12-03T22:43:50.382Z,100.00
2022-12-03T22:46:53.350Z,100.00
2022-12-03T22:49:56.097Z,100.00
2022-12-03T22:52:59.177Z,100.00
2022-12-03T22:56:01.642Z,100.00
2022-12-03T22:59:05.298Z,100.00
2022-12-03T23:02:16.116Z,100.00
2022-12-03T23:05:19.425Z,100.00
2022-12-03T23:08:25.800Z,100.00
2022-12-03T23:11:30.306Z,100.00
2022-12-03T23:14:33.579Z,100.00
2022-12-03T23:17:39.484Z,100.00
2022-12-03T23:20:52.000Z,100.00
2022-12-03T23:23:59.061Z,100.00
2022-12-03T23:27:03.238Z,100.00
2022-12-03T23:30:08.667Z,100.00
2022-12-03T23:33:12.950Z,100.00
2022-12-03T23:36:31.085Z,100.00
2022-12-03T23:39:42.753Z,100.00
2022-12-03T23:42:46.771Z,100.00
2022-12-03T23:45:55.348Z,100.00
2022-12-03T23:49:07.447Z,100.00
2022-12-03T23:52:14.191Z,100.00
2022-12-03T23:55:18.836Z,100.00
2022-12-03T23:58:27.042Z,100.00
